createdAt,value
2018-11-11T00:02:17.063Z,81.99
2018-11-11T00:04:48.481Z,83.17
2018-11-11T00:07:21.261Z,83.67
2018-11-11T00:09:52.517Z,83.00
2018-11-11T00:12:27.248Z,83.44
2018-11-11T00:14:59.296Z,82.41
2018-11-11T00:17:29.837Z,81.10
2018-11-11T00:20:01.154Z,80.39
2018-11-11T00:22:33.325Z,79.26
2018-11-11T00:25:04.857Z,79.49
2018-11-11T00:27:41.606Z,79.67
2018-11-11T00:33:06.528Z,81.03
2018-11-11T00:35:38.414Z,80.73
2018-11-11T00:38:09.402Z,79.53
2018-11-11T00:40:41.411Z,78.17
2018-11-11T00:43:16.401Z,77.52
2018-11-11T00:45:49.277Z,78.15
2018-11-11T00:48:20.697Z,76.99
2018-11-11T00:50:57.222Z,76.40
2018-11-11T00:53:30.997Z,76.59
2018-11-11T00:56:07.385Z,76.43
2018-11-11T00:58:40.364Z,75.34
2018-11-11T01:01:14.316Z,76.15
2018-11-11T01:03:45.740Z,76.11
2018-11-11T01:06:16.478Z,75.46
2018-11-11T01:08:48.460Z,75.84
2018-11-11T01:11:19.917Z,76.12
2018-11-11T01:13:51.520Z,77.99
2018-11-11T01:16:23.788Z,77.31
2018-11-11T01:18:55.692Z,76.25
2018-11-11T01:21:27.869Z,77.79
2018-11-11T01:23:58.856Z,77.45
2018-11-11T01:26:31.244Z,78.43
2018-11-11T01:29:02.560Z,79.40
2018-11-11T01:31:33.599Z,80.14
2018-11-11T01:34:04.212Z,79.65
2018-11-11T01:36:41.353Z,81.21
2018-11-11T01:39:12.729Z,81.35
2018-11-11T01:41:44.587Z,81.05
2018-11-11T01:44:17.791Z,81.34
2018-11-11T01:46:48.175Z,78.95
2018-11-11T01:49:18.833Z,77.93
2018-11-11T01:51:49.787Z,77.95
2018-11-11T01:54:22.552Z,79.46
2018-11-11T01:56:55.661Z,79.51
2018-11-11T01:59:26.740Z,80.69
2018-11-11T02:01:59.888Z,80.28
2018-11-11T02:04:30.769Z,79.28
2018-11-11T02:07:05.253Z,79.11
2018-11-11T02:09:36.653Z,78.19
2018-11-11T02:12:08.308Z,77.39
2018-11-11T02:14:38.987Z,77.08
2018-11-11T02:17:11.756Z,77.77
2018-11-11T02:19:42.467Z,78.06
2018-11-11T02:22:21.538Z,78.55
2018-11-11T02:24:54.100Z,79.70
2018-11-11T02:27:25.916Z,79.94
2018-11-11T02:29:59.633Z,80.68
2018-11-11T02:32:30.840Z,80.53
2018-11-11T02:35:04.090Z,80.47
2018-11-11T02:37:34.946Z,80.26
2018-11-11T02:40:10.073Z,79.83
2018-11-11T02:42:41.549Z,78.92
2018-11-11T02:45:14.147Z,78.17
2018-11-11T02:47:58.554Z,78.00
2018-11-11T02:50:32.797Z,76.79
2018-11-11T02:53:03.606Z,78.17
2018-11-11T02:55:36.803Z,78.01
2018-11-11T02:58:09.892Z,77.32
2018-11-11T03:00:41.381Z,76.34
2018-11-11T03:03:14.017Z,76.47
2018-11-11T03:05:44.995Z,76.03
2018-11-11T03:08:18.182Z,76.46
2018-11-11T03:10:50.973Z,76.70
2018-11-11T03:13:22.442Z,77.64
2018-11-11T03:15:55.100Z,76.76
2018-11-11T03:18:26.409Z,77.12
2018-11-11T03:20:58.902Z,77.24
2018-11-11T03:23:30.495Z,76.32
2018-11-11T03:26:03.218Z,76.17
2018-11-11T03:28:34.400Z,75.41
2018-11-11T03:31:08.280Z,77.69
2018-11-11T03:33:41.164Z,79.67
2018-11-11T03:36:11.825Z,77.91
2018-11-11T03:38:42.664Z,75.66
2018-11-11T03:41:24.224Z,74.01
2018-11-11T03:43:55.368Z,73.14
2018-11-11T03:46:28.221Z,75.33
2018-11-11T03:48:59.044Z,73.69
2018-11-11T03:51:30.100Z,72.36
2018-11-11T03:54:06.428Z,71.72
2018-11-11T03:56:37.184Z,71.26
2018-11-11T03:59:08.229Z,71.59
2018-11-11T04:01:41.385Z,71.43
2018-11-11T04:04:12.401Z,70.92
2018-11-11T04:06:45.332Z,69.82
2018-11-11T04:09:16.339Z,70.11
2018-11-11T04:11:48.232Z,70.20
2018-11-11T04:14:20.465Z,71.74
2018-11-11T04:16:51.318Z,72.02
2018-11-11T04:19:22.456Z,71.32
2018-11-11T04:21:53.100Z,71.90
2018-11-11T04:24:23.638Z,71.46
2018-11-11T04:26:59.079Z,70.94
2018-11-11T04:29:30.273Z,74.39
2018-11-11T04:32:04.332Z,73.52
2018-11-11T04:34:37.781Z,73.16
2018-11-11T04:37:09.803Z,72.21
2018-11-11T04:39:41.720Z,75.19
2018-11-11T04:42:14.723Z,74.08
2018-11-11T04:44:45.431Z,72.24
2018-11-11T04:47:18.620Z,72.54
2018-11-11T04:49:52.426Z,73.44
2018-11-11T04:52:25.569Z,74.43
2018-11-11T04:54:56.590Z,75.44
2018-11-11T04:57:29.882Z,74.92
2018-11-11T05:00:03.890Z,75.10
2018-11-11T05:02:38.130Z,75.83
2018-11-11T05:05:11.905Z,77.26
2018-11-11T05:08:02.615Z,77.75
2018-11-11T05:10:36.412Z,78.21
2018-11-11T05:13:08.720Z,77.85
2018-11-11T05:15:40.240Z,76.34
2018-11-11T05:18:10.780Z,74.67
2018-11-11T05:20:42.468Z,76.08
2018-11-11T05:23:14.629Z,75.87
2018-11-11T05:25:46.394Z,75.22
2018-11-11T05:28:18.518Z,73.79
2018-11-11T05:30:51.366Z,73.82
2018-11-11T05:33:23.544Z,76.65
2018-11-11T05:36:00.141Z,80.47
2018-11-11T05:38:33.792Z,82.20
2018-11-11T05:41:09.804Z,83.52
2018-11-11T05:43:45.849Z,85.29
2018-11-11T05:46:21.918Z,87.97
2018-11-11T05:48:57.905Z,84.39
2018-11-11T05:51:34.286Z,83.00
2018-11-11T05:54:10.448Z,79.77
2018-11-11T05:56:46.733Z,77.15
2018-11-11T05:59:22.754Z,75.42
2018-11-11T06:01:58.876Z,74.07
2018-11-11T06:04:35.196Z,73.96
2018-11-11T06:07:11.545Z,76.60
2018-11-11T06:09:47.920Z,80.43
2018-11-11T06:12:24.280Z,79.63
2018-11-11T06:15:00.272Z,80.65
2018-11-11T06:17:36.738Z,81.36
2018-11-11T06:23:03.261Z,79.53
2018-11-11T06:25:59.443Z,76.28
2018-11-11T06:28:35.546Z,73.73
2018-11-11T06:31:11.704Z,72.54
2018-11-11T06:33:47.855Z,71.52
2018-11-11T06:36:24.111Z,71.00
2018-11-11T06:39:00.234Z,70.61
2018-11-11T06:41:36.613Z,70.88
2018-11-11T06:44:12.941Z,71.51
2018-11-11T06:46:49.020Z,72.22
2018-11-11T06:49:25.194Z,72.36
2018-11-11T06:52:01.273Z,72.44
2018-11-11T06:54:37.469Z,72.86
2018-11-11T06:57:13.485Z,72.95
2018-11-11T06:59:49.949Z,74.42
2018-11-11T07:02:38.510Z,75.86
2018-11-11T07:05:15.192Z,76.57
2018-11-11T07:07:54.096Z,75.98
2018-11-11T07:10:31.122Z,77.31
2018-11-11T07:13:07.160Z,76.67
2018-11-11T07:15:43.253Z,76.78
2018-11-11T07:18:19.318Z,77.58
2018-11-11T07:20:55.434Z,78.39
2018-11-11T07:23:31.608Z,77.42
2018-11-11T07:26:07.985Z,76.02
2018-11-11T07:28:44.402Z,75.17
2018-11-11T07:31:20.861Z,74.20
2018-11-11T07:33:57.253Z,74.73
2018-11-11T07:36:33.468Z,74.78
2018-11-11T07:39:11.673Z,74.37
2018-11-11T07:41:47.757Z,74.00
2018-11-11T07:44:24.120Z,74.40
2018-11-11T07:47:00.494Z,73.50
2018-11-11T07:49:36.529Z,75.24
2018-11-11T07:52:12.639Z,74.25
2018-11-11T07:54:48.653Z,74.83
2018-11-11T07:57:24.902Z,75.48
2018-11-11T08:00:01.172Z,74.10
2018-11-11T08:02:37.479Z,76.05
2018-11-11T08:05:13.676Z,74.60
2018-11-11T08:07:55.520Z,74.58
2018-11-11T08:10:42.781Z,74.51
2018-11-11T08:13:18.975Z,74.20
2018-11-11T08:15:55.186Z,74.62
2018-11-11T08:18:31.393Z,74.86
2018-11-11T08:21:07.635Z,75.16
2018-11-11T08:23:43.768Z,73.81
2018-11-11T08:26:19.773Z,73.46
2018-11-11T08:28:55.900Z,73.10
2018-11-11T08:31:32.086Z,72.59
2018-11-11T08:34:08.141Z,71.71
2018-11-11T08:36:44.264Z,72.41
2018-11-11T08:39:21.009Z,72.73
2018-11-11T08:41:58.718Z,74.38
2018-11-11T08:44:34.673Z,73.76
2018-11-11T08:47:10.873Z,72.79
2018-11-11T08:49:46.956Z,72.21
2018-11-11T08:52:23.015Z,71.42
2018-11-11T08:54:59.249Z,71.43
2018-11-11T08:57:35.881Z,73.61
2018-11-11T09:00:15.606Z,72.21
2018-11-11T09:02:59.898Z,71.24
2018-11-11T09:05:36.085Z,71.94
2018-11-11T09:08:12.139Z,75.51
2018-11-11T09:10:48.183Z,74.10
2018-11-11T09:13:24.274Z,71.50
2018-11-11T09:16:00.597Z,70.27
2018-11-11T09:18:36.765Z,69.86
2018-11-11T09:21:13.982Z,69.72
2018-11-11T09:23:50.608Z,68.28
2018-11-11T09:26:27.007Z,67.35
2018-11-11T09:29:03.293Z,66.32
2018-11-11T09:31:39.753Z,70.60
2018-11-11T09:34:16.114Z,71.76
2018-11-11T09:36:52.275Z,69.12
2018-11-11T09:39:28.358Z,67.83
2018-11-11T09:42:05.313Z,68.53
2018-11-11T09:44:41.557Z,66.14
2018-11-11T09:47:18.321Z,65.91
2018-11-11T09:49:54.505Z,66.72
2018-11-11T09:52:30.578Z,68.25
2018-11-11T09:55:08.618Z,71.05
2018-11-11T09:57:45.147Z,75.54
2018-11-11T10:00:33.410Z,75.63
2018-11-11T10:03:15.762Z,71.72
2018-11-11T10:05:56.957Z,72.77
2018-11-11T10:10:40.106Z,71.95
2018-11-11T10:15:24.093Z,73.14
2018-11-11T10:18:17.146Z,72.02
2018-11-11T10:21:02.985Z,70.11
2018-11-11T10:24:00.085Z,70.30
2018-11-11T10:26:40.660Z,68.49
2018-11-11T10:31:26.564Z,67.44
2018-11-11T10:34:07.325Z,68.27
2018-11-11T10:36:47.978Z,69.88
2018-11-11T10:39:35.200Z,70.90
2018-11-11T10:42:18.228Z,68.92
2018-11-11T10:44:59.509Z,65.66
2018-11-11T10:47:52.909Z,62.92
2018-11-11T10:50:32.305Z,62.32
2018-11-11T10:53:08.528Z,64.31
2018-11-11T10:55:44.674Z,63.79
2018-11-11T10:58:21.045Z,60.87
2018-11-11T11:01:02.560Z,59.60
2018-11-11T11:03:38.692Z,59.57
2018-11-11T11:06:15.127Z,60.59
2018-11-11T11:08:56.922Z,62.57
2018-11-11T11:11:33.125Z,65.20
2018-11-11T11:14:09.382Z,64.55
2018-11-11T11:16:45.438Z,61.79
2018-11-11T11:19:21.661Z,59.56
2018-11-11T11:21:55.153Z,62.09
2018-11-11T11:24:25.795Z,63.24
2018-11-11T11:26:58.613Z,67.29
2018-11-11T11:29:32.526Z,67.80
2018-11-11T11:32:05.139Z,68.12
2018-11-11T11:34:35.921Z,66.86
2018-11-11T11:37:06.496Z,63.54
2018-11-11T11:39:37.356Z,60.96
2018-11-11T11:42:10.538Z,59.93
2018-11-11T11:44:44.093Z,59.72
2018-11-11T11:47:22.179Z,57.61
2018-11-11T11:49:52.953Z,58.74
2018-11-11T11:52:30.044Z,59.34
2018-11-11T11:55:01.933Z,59.28
2018-11-11T11:57:34.267Z,61.56
2018-11-11T12:00:09.618Z,60.07
2018-11-11T12:02:50.422Z,58.68
2018-11-11T12:05:40.982Z,58.81
2018-11-11T12:08:13.432Z,60.22
2018-11-11T12:10:46.431Z,59.93
2018-11-11T12:13:19.831Z,57.98
2018-11-11T12:15:54.435Z,56.33
2018-11-11T12:18:26.476Z,57.22
2018-11-11T12:20:58.057Z,57.92
2018-11-11T12:23:29.349Z,59.46
2018-11-11T12:26:06.079Z,61.26
2018-11-11T12:28:42.522Z,61.24
2018-11-11T12:31:13.122Z,61.32
2018-11-11T12:33:51.528Z,60.05
2018-11-11T12:36:24.558Z,61.21
2018-11-11T12:38:55.478Z,62.35
2018-11-11T12:41:29.050Z,63.35
2018-11-11T12:43:59.404Z,64.29
2018-11-11T12:46:36.535Z,65.40
2018-11-11T12:49:10.475Z,67.17
2018-11-11T12:51:44.285Z,67.15
2018-11-11T12:54:15.824Z,66.99
2018-11-11T12:56:46.335Z,67.75
2018-11-11T12:59:21.460Z,67.86
2018-11-11T13:01:52.899Z,68.28
2018-11-11T13:04:26.668Z,68.04
2018-11-11T13:06:58.309Z,66.26
2018-11-11T13:09:29.492Z,66.63
2018-11-11T13:12:01.813Z,66.72
2018-11-11T13:14:33.283Z,67.08
2018-11-11T13:17:07.464Z,68.26
2018-11-11T13:19:40.573Z,68.80
2018-11-11T13:22:16.668Z,68.71
2018-11-11T13:24:50.120Z,68.53
2018-11-11T13:27:23.116Z,68.14
2018-11-11T13:29:55.805Z,68.09
2018-11-11T13:32:28.959Z,66.46
2018-11-11T13:35:03.510Z,67.65
2018-11-11T13:37:36.568Z,67.35
2018-11-11T13:40:13.543Z,67.92
2018-11-11T13:42:58.253Z,67.48
2018-11-11T13:45:29.450Z,66.45
2018-11-11T13:48:02.842Z,66.75
2018-11-11T13:50:34.099Z,64.54
2018-11-11T13:53:04.881Z,63.00
2018-11-11T13:55:37.058Z,63.34
2018-11-11T13:58:07.552Z,63.14
2018-11-11T14:00:44.005Z,61.64
2018-11-11T14:03:15.868Z,61.71
2018-11-11T14:05:47.445Z,61.11
2018-11-11T14:08:20.712Z,63.37
2018-11-11T14:10:52.598Z,66.87
2018-11-11T14:13:27.647Z,66.11
2018-11-11T14:15:58.503Z,66.90
2018-11-11T14:18:31.296Z,67.32
2018-11-11T14:21:02.961Z,66.61
2018-11-11T14:23:36.468Z,66.11
2018-11-11T14:26:10.855Z,66.64
2018-11-11T14:28:42.251Z,66.33
2018-11-11T14:31:24.083Z,65.51
2018-11-11T14:33:57.156Z,65.72
2018-11-11T14:36:28.146Z,64.86
2018-11-11T14:38:59.361Z,63.58
2018-11-11T14:41:31.419Z,62.58
2018-11-11T14:44:05.025Z,62.60
2018-11-11T14:46:43.840Z,62.19
2018-11-11T14:49:23.047Z,62.35
2018-11-11T14:51:56.333Z,63.50
2018-11-11T14:54:29.265Z,63.26
2018-11-11T14:57:02.449Z,65.54
2018-11-11T14:59:33.176Z,65.77
2018-11-11T15:02:03.951Z,64.92
2018-11-11T15:04:40.172Z,64.50
2018-11-11T15:07:14.618Z,66.67
2018-11-11T15:09:53.463Z,68.07
2018-11-11T15:12:27.816Z,68.03
2018-11-11T15:14:58.981Z,65.58
2018-11-11T15:17:30.478Z,63.94
2018-11-11T15:20:06.928Z,62.38
2018-11-11T15:22:39.236Z,66.44
2018-11-11T15:25:14.559Z,66.89
2018-11-11T15:28:05.914Z,65.20
2018-11-11T15:30:40.411Z,64.13
2018-11-11T15:33:14.148Z,64.92
2018-11-11T15:35:48.425Z,65.88
2018-11-11T15:38:22.297Z,66.42
2018-11-11T15:40:56.196Z,67.75
2018-11-11T15:43:30.129Z,68.35
2018-11-11T15:46:02.477Z,68.44
2018-11-11T15:48:34.137Z,67.94
2018-11-11T15:51:06.446Z,68.40
2018-11-11T15:53:38.360Z,68.72
2018-11-11T15:56:11.222Z,72.31
2018-11-11T15:58:41.572Z,68.61
2018-11-11T16:01:22.126Z,66.42
2018-11-11T16:04:02.645Z,65.00
2018-11-11T16:06:36.259Z,67.07
2018-11-11T16:09:12.758Z,70.11
2018-11-11T16:11:43.291Z,69.07
2018-11-11T16:14:16.578Z,66.88
2018-11-11T16:16:47.633Z,65.40
2018-11-11T16:19:21.571Z,63.93
2018-11-11T16:21:54.574Z,63.21
2018-11-11T16:24:27.680Z,62.43
2018-11-11T16:26:59.012Z,62.01
2018-11-11T16:29:31.660Z,64.15
2018-11-11T16:32:02.661Z,64.18
2018-11-11T16:34:35.553Z,65.15
2018-11-11T16:37:06.742Z,65.24
2018-11-11T16:39:38.010Z,65.67
2018-11-11T16:42:09.762Z,64.51
2018-11-11T16:44:42.710Z,64.58
2018-11-11T16:47:13.781Z,64.91
2018-11-11T16:49:47.531Z,66.45
2018-11-11T16:52:19.872Z,67.79
2018-11-11T16:54:50.982Z,68.09
2018-11-11T16:57:27.660Z,68.87
2018-11-11T16:59:58.528Z,68.85
2018-11-11T17:02:31.129Z,68.65
2018-11-11T17:05:02.596Z,68.39
2018-11-11T17:07:33.120Z,68.79
2018-11-11T17:10:05.281Z,69.31
2018-11-11T17:12:44.494Z,70.36
2018-11-11T17:15:27.460Z,70.50
2018-11-11T17:17:58.572Z,70.66
2018-11-11T17:20:39.525Z,70.19
2018-11-11T17:23:11.669Z,71.00
2018-11-11T17:25:45.550Z,71.26
2018-11-11T17:28:19.058Z,71.08
2018-11-11T17:30:49.849Z,71.55
2018-11-11T17:33:22.370Z,71.46
2018-11-11T17:35:55.070Z,71.64
2018-11-11T17:38:29.936Z,70.81
2018-11-11T17:41:05.675Z,76.39
2018-11-11T17:43:37.427Z,77.62
2018-11-11T17:46:07.994Z,79.56
2018-11-11T17:48:41.887Z,80.18
2018-11-11T17:51:13.044Z,81.28
2018-11-11T17:53:43.863Z,79.85
2018-11-11T17:56:24.252Z,77.08
2018-11-11T17:58:55.794Z,73.96
2018-11-11T18:01:27.101Z,72.46
2018-11-11T18:04:06.809Z,74.43
2018-11-11T18:06:37.426Z,72.95
2018-11-11T18:09:13.809Z,74.45
2018-11-11T18:11:51.960Z,76.99
2018-11-11T18:14:23.692Z,76.93
2018-11-11T18:16:58.864Z,76.05
2018-11-11T18:19:30.308Z,76.75
2018-11-11T18:22:03.141Z,78.02
2018-11-11T18:24:33.786Z,79.75
2018-11-11T18:27:13.084Z,79.93
2018-11-11T18:29:47.512Z,81.71
2018-11-11T18:32:20.168Z,82.09
2018-11-11T18:34:50.813Z,82.38
2018-11-11T18:37:26.314Z,83.32
2018-11-11T18:39:57.425Z,83.32
2018-11-11T18:42:30.203Z,82.81
2018-11-11T18:45:02.238Z,81.59
2018-11-11T18:47:33.060Z,81.24
2018-11-11T18:50:11.712Z,78.68
2018-11-11T18:52:56.339Z,75.05
2018-11-11T18:55:30.363Z,72.84
2018-11-11T18:58:16.944Z,70.58
2018-11-11T19:00:49.209Z,69.71
2018-11-11T19:03:22.313Z,69.23
2018-11-11T19:05:55.381Z,69.13
2018-11-11T19:08:26.259Z,68.15
2018-11-11T19:11:02.652Z,67.82
2018-11-11T19:13:35.542Z,68.17
2018-11-11T19:16:09.693Z,68.93
2018-11-11T19:18:42.601Z,67.60
2018-11-11T19:21:13.674Z,66.80
2018-11-11T19:23:46.353Z,67.59
2018-11-11T19:26:17.491Z,68.55
2018-11-11T19:28:53.193Z,68.19
2018-11-11T19:31:23.801Z,67.21
2018-11-11T19:33:54.588Z,66.74
2018-11-11T19:36:27.585Z,67.03
2018-11-11T19:38:58.410Z,67.80
2018-11-11T19:41:31.991Z,68.73
2018-11-11T19:44:02.873Z,69.49
2018-11-11T19:46:36.096Z,70.49
2018-11-11T19:49:13.756Z,70.87
2018-11-11T19:51:48.960Z,72.03
2018-11-11T19:54:19.608Z,72.48
2018-11-11T19:56:50.645Z,73.27
2018-11-11T19:59:24.493Z,74.12
2018-11-11T20:01:57.637Z,74.93
2018-11-11T20:04:30.826Z,73.75
2018-11-11T20:07:03.979Z,74.48
2018-11-11T20:09:35.869Z,74.40
2018-11-11T20:12:08.952Z,75.87
2018-11-11T20:14:39.691Z,75.23
2018-11-11T20:17:10.618Z,73.74
2018-11-11T20:19:44.257Z,73.42
2018-11-11T20:22:16.469Z,73.31
2018-11-11T20:24:53.745Z,72.30
2018-11-11T20:27:29.528Z,70.97
2018-11-11T20:30:09.835Z,71.47
2018-11-11T20:32:42.089Z,70.93
2018-11-11T20:37:58.112Z,69.39
2018-11-11T20:40:29.371Z,69.35
2018-11-11T20:43:11.711Z,68.85
2018-11-11T20:45:43.926Z,68.30
2018-11-11T20:48:15.772Z,67.72
2018-11-11T20:50:46.302Z,67.18
2018-11-11T20:53:19.660Z,67.40
2018-11-11T20:55:53.160Z,67.38
2018-11-11T20:58:23.908Z,68.08
2018-11-11T21:00:56.152Z,68.52
2018-11-11T21:03:27.986Z,68.76
2018-11-11T21:05:59.084Z,69.18
2018-11-11T21:08:30.988Z,68.67
2018-11-11T21:11:03.108Z,68.50
2018-11-11T21:13:34.030Z,69.55
2018-11-11T21:16:06.193Z,71.19
2018-11-11T21:18:36.814Z,72.83
2018-11-11T21:21:07.782Z,74.49
2018-11-11T21:23:40.937Z,74.72
2018-11-11T21:26:14.040Z,75.06
2018-11-11T21:28:47.020Z,74.78
2018-11-11T21:31:30.414Z,73.24
2018-11-11T21:34:01.925Z,72.55
2018-11-11T21:36:37.830Z,71.98
2018-11-11T21:39:12.925Z,74.09
2018-11-11T21:41:45.180Z,75.51
2018-11-11T21:44:17.380Z,76.05
2018-11-11T21:46:51.148Z,76.27
2018-11-11T21:49:23.828Z,77.07
2018-11-11T21:51:59.270Z,78.04
2018-11-11T21:54:29.846Z,78.45
2018-11-11T21:57:06.322Z,77.26
2018-11-11T21:59:39.053Z,77.67
2018-11-11T22:02:10.235Z,77.35
2018-11-11T22:04:43.328Z,75.54
2018-11-11T22:07:15.908Z,74.34
2018-11-11T22:09:47.361Z,73.78
2018-11-11T22:12:22.870Z,74.34
2018-11-11T22:14:57.216Z,73.18
2018-11-11T22:17:30.310Z,72.39
2018-11-11T22:20:02.278Z,70.91
2018-11-11T22:22:33.429Z,70.33
2018-11-11T22:25:05.994Z,69.38
2018-11-11T22:27:38.132Z,73.08
2018-11-11T22:30:10.968Z,77.20
2018-11-11T22:32:58.516Z,82.82
2018-11-11T22:35:43.432Z,85.19
2018-11-11T22:38:14.234Z,85.90
2018-11-11T22:40:47.240Z,85.00
2018-11-11T22:43:30.272Z,83.81
2018-11-11T22:46:02.308Z,84.95
2018-11-11T22:48:34.445Z,84.01
2018-11-11T22:51:06.584Z,83.69
2018-11-11T22:53:39.525Z,79.99
2018-11-11T22:56:11.843Z,77.55
2018-11-11T22:58:42.934Z,78.78
2018-11-11T23:01:20.421Z,78.40
2018-11-11T23:03:52.745Z,79.94
2018-11-11T23:06:23.287Z,79.75
2018-11-11T23:08:55.591Z,78.81
2018-11-11T23:11:27.456Z,78.63
2018-11-11T23:13:59.192Z,78.65
2018-11-11T23:16:31.415Z,76.97
2018-11-11T23:19:02.068Z,76.71
2018-11-11T23:21:39.317Z,75.83
2018-11-11T23:24:11.421Z,74.45
2018-11-11T23:26:45.563Z,75.19
2018-11-11T23:29:18.624Z,74.53
2018-11-11T23:31:51.287Z,77.50
2018-11-11T23:34:22.747Z,77.08
2018-11-11T23:36:55.614Z,77.86
2018-11-11T23:39:26.726Z,77.19
2018-11-11T23:42:02.327Z,76.20
2018-11-11T23:44:37.244Z,75.64
2018-11-11T23:47:09.380Z,77.42
2018-11-11T23:49:46.364Z,82.17
2018-11-11T23:52:19.796Z,88.32
2018-11-11T23:54:53.006Z,90.42
2018-11-11T23:57:23.660Z,90.27
2018-11-11T23:59:54.913Z,89.58
